createdAt,value
2023-03-08T00:01:40.061Z,1.00
2023-03-08T00:04:09.066Z,0.90
2023-03-08T00:06:38.353Z,0.90
2023-03-08T00:09:07.105Z,1.00
2023-03-08T00:11:36.486Z,0.90
2023-03-08T00:14:05.405Z,1.00
2023-03-08T00:16:34.454Z,0.90
2023-03-08T00:19:05.132Z,0.90
2023-03-08T00:21:34.110Z,0.90
2023-03-08T00:24:02.995Z,0.90
2023-03-08T00:26:31.951Z,0.90
2023-03-08T00:29:00.904Z,1.00
2023-03-08T00:31:30.008Z,0.90
2023-03-08T00:33:59.067Z,0.90
2023-03-08T00:36:29.350Z,0.90
2023-03-08T00:38:58.808Z,0.90
2023-03-08T00:41:28.039Z,0.90
2023-03-08T00:43:56.904Z,0.90
2023-03-08T00:46:27.141Z,0.90
2023-03-08T00:48:56.022Z,0.90
2023-03-08T00:51:25.063Z,0.90
2023-03-08T00:53:56.747Z,0.90
2023-03-08T00:56:25.698Z,0.90
2023-03-08T00:58:54.728Z,0.90
2023-03-08T01:01:24.127Z,1.00
2023-03-08T01:03:54.772Z,0.90
2023-03-08T01:06:25.579Z,1.00
2023-03-08T01:08:56.162Z,1.00
2023-03-08T01:11:27.923Z,0.90
2023-03-08T01:13:57.260Z,0.90
2023-03-08T01:16:28.190Z,0.90
2023-03-08T01:18:58.001Z,0.90
2023-03-08T01:21:28.857Z,0.90
2023-03-08T01:23:59.446Z,0.90
2023-03-08T01:26:30.115Z,0.90
2023-03-08T01:28:59.395Z,0.90
2023-03-08T01:31:31.608Z,0.90
2023-03-08T01:34:02.127Z,0.90
2023-03-08T01:36:31.077Z,0.90
2023-03-08T01:39:04.198Z,0.90
2023-03-08T01:41:33.709Z,0.90
2023-03-08T01:44:03.287Z,1.00
2023-03-08T01:46:33.625Z,0.90
2023-03-08T01:49:28.428Z,0.90
2023-03-08T01:52:03.218Z,0.90
2023-03-08T01:54:38.197Z,0.90
2023-03-08T01:57:12.978Z,0.90
2023-03-08T01:59:42.030Z,0.80
2023-03-08T02:02:11.360Z,0.90
2023-03-08T02:04:41.221Z,0.80
2023-03-08T02:07:13.955Z,0.80
2023-03-08T02:09:46.427Z,0.80
2023-03-08T02:12:15.674Z,0.80
2023-03-08T02:14:45.384Z,0.80
2023-03-08T02:17:14.593Z,0.80
2023-03-08T02:19:47.678Z,0.80
2023-03-08T02:22:18.422Z,0.80
2023-03-08T02:24:50.058Z,0.80
2023-03-08T02:27:23.001Z,0.80
2023-03-08T02:29:52.062Z,0.70
2023-03-08T02:32:21.176Z,0.70
2023-03-08T02:34:50.201Z,0.70
2023-03-08T02:37:19.315Z,0.70
2023-03-08T02:39:51.760Z,0.70
2023-03-08T02:42:21.159Z,0.70
2023-03-08T02:44:50.088Z,0.70
2023-03-08T02:47:19.443Z,0.70
2023-03-08T02:49:49.610Z,0.70
2023-03-08T02:52:18.677Z,0.60
2023-03-08T02:54:47.519Z,0.60
2023-03-08T02:57:18.421Z,0.60
2023-03-08T02:59:48.473Z,0.50
2023-03-08T03:02:18.820Z,0.50
2023-03-08T03:04:48.229Z,0.40
2023-03-08T03:07:17.233Z,0.40
2023-03-08T03:09:46.198Z,0.50
2023-03-08T03:12:17.545Z,0.50
2023-03-08T03:14:46.465Z,0.50
2023-03-08T03:17:15.690Z,0.50
2023-03-08T03:19:44.699Z,0.50
2023-03-08T03:22:13.919Z,0.40
2023-03-08T03:24:43.021Z,0.40
2023-03-08T03:27:12.333Z,0.40
2023-03-08T03:29:44.586Z,0.30
2023-03-08T03:32:18.011Z,0.30
2023-03-08T03:34:47.502Z,0.30
2023-03-08T03:37:18.497Z,0.30
2023-03-08T03:39:47.579Z,0.30
2023-03-08T03:42:18.767Z,0.30
2023-03-08T03:44:56.328Z,0.30
2023-03-08T03:47:26.269Z,0.30
2023-03-08T03:49:59.833Z,0.30
2023-03-08T03:52:33.293Z,0.20
2023-03-08T03:55:07.550Z,0.20
2023-03-08T03:57:36.686Z,0.10
2023-03-08T04:00:09.461Z,0.20
2023-03-08T04:02:42.683Z,0.20
2023-03-08T04:05:15.070Z,0.20
2023-03-08T04:07:48.617Z,0.10
2023-03-08T04:10:18.778Z,0.10
2023-03-08T04:12:50.089Z,0.10
2023-03-08T04:15:22.293Z,0.10
2023-03-08T04:17:52.911Z,0.10
2023-03-08T04:20:24.392Z,0.00
2023-03-08T04:22:57.717Z,0.00
2023-03-08T04:25:33.526Z,0.00
2023-03-08T04:28:04.113Z,-0.10
2023-03-08T04:30:35.943Z,0.00
2023-03-08T04:33:07.202Z,-0.10
2023-03-08T04:35:47.106Z,0.00
2023-03-08T04:38:17.545Z,0.00
2023-03-08T04:41:05.719Z,-0.10
2023-03-08T04:44:00.867Z,-0.10
2023-03-08T04:46:40.142Z,0.00
2023-03-08T04:49:09.837Z,0.00
2023-03-08T04:51:44.127Z,0.00
2023-03-08T04:54:14.582Z,0.10
2023-03-08T04:56:50.793Z,0.20
2023-03-08T04:59:21.740Z,0.20
2023-03-08T05:01:53.623Z,0.30
2023-03-08T05:04:23.655Z,0.30
2023-03-08T05:06:54.139Z,0.30
2023-03-08T05:09:26.960Z,0.30
2023-03-08T05:11:56.020Z,0.30
2023-03-08T05:14:25.145Z,0.30
2023-03-08T05:16:58.317Z,0.30
2023-03-08T05:19:27.529Z,0.20
2023-03-08T05:21:57.100Z,0.30
2023-03-08T05:24:27.326Z,0.20
2023-03-08T05:26:57.708Z,0.20
2023-03-08T05:29:27.037Z,0.20
2023-03-08T05:31:58.935Z,0.20
2023-03-08T05:34:28.090Z,0.20
2023-03-08T05:36:59.945Z,0.20
2023-03-08T05:39:30.240Z,0.20
2023-03-08T05:42:05.020Z,0.20
2023-03-08T05:44:40.199Z,0.20
2023-03-08T05:47:12.541Z,0.20
2023-03-08T05:49:41.672Z,0.20
2023-03-08T05:52:11.112Z,0.30
2023-03-08T05:54:40.630Z,0.30
2023-03-08T05:57:14.434Z,0.30
2023-03-08T05:59:43.499Z,0.30
2023-03-08T06:02:16.772Z,0.40
2023-03-08T06:04:49.452Z,0.40
2023-03-08T06:07:21.665Z,0.40
2023-03-08T06:09:56.404Z,0.40
2023-03-08T06:12:26.359Z,0.40
2023-03-08T06:14:58.967Z,0.50
2023-03-08T06:17:31.813Z,0.50
2023-03-08T06:20:01.291Z,0.50
2023-03-08T06:22:31.031Z,0.50
2023-03-08T06:25:01.442Z,0.50
2023-03-08T06:27:35.385Z,0.60
2023-03-08T06:30:10.581Z,0.60
2023-03-08T06:32:41.352Z,0.60
2023-03-08T06:35:10.787Z,0.60
2023-03-08T06:37:45.400Z,0.60
2023-03-08T06:40:14.724Z,0.60
2023-03-08T06:42:43.989Z,0.60
2023-03-08T06:45:16.352Z,0.60
2023-03-08T06:47:46.534Z,0.70
2023-03-08T06:50:16.026Z,0.70
2023-03-08T06:52:47.536Z,0.70
2023-03-08T06:55:19.292Z,0.70
2023-03-08T06:57:48.580Z,0.80
2023-03-08T07:00:17.997Z,0.80
2023-03-08T07:02:48.726Z,0.80
2023-03-08T07:05:17.644Z,0.80
2023-03-08T07:07:46.735Z,0.80
2023-03-08T07:10:17.646Z,0.90
2023-03-08T07:12:48.512Z,0.90
2023-03-08T07:15:19.078Z,0.90
2023-03-08T07:17:50.429Z,0.90
2023-03-08T07:20:21.362Z,0.90
2023-03-08T07:22:50.751Z,0.80
2023-03-08T07:25:21.430Z,0.70
2023-03-08T07:27:50.278Z,0.80
2023-03-08T07:30:19.185Z,0.80
2023-03-08T07:32:49.562Z,0.80
2023-03-08T07:35:18.650Z,0.80
2023-03-08T07:37:48.776Z,0.80
2023-03-08T07:40:18.808Z,0.80
2023-03-08T07:42:48.209Z,0.90
2023-03-08T07:45:49.125Z,1.00
2023-03-08T07:48:19.330Z,1.10
2023-03-08T07:50:48.907Z,1.20
2023-03-08T07:53:17.656Z,1.10
2023-03-08T07:55:46.497Z,1.30
2023-03-08T07:58:15.280Z,1.50
2023-03-08T08:00:43.996Z,1.70
2023-03-08T08:03:12.803Z,1.60
2023-03-08T08:05:43.017Z,1.70
2023-03-08T08:08:13.949Z,1.60
2023-03-08T08:10:43.115Z,1.70
2023-03-08T08:13:11.942Z,1.50
2023-03-08T08:15:40.759Z,1.40
2023-03-08T08:18:09.449Z,1.60
2023-03-08T08:20:38.244Z,1.60
2023-03-08T08:23:08.760Z,1.60
2023-03-08T08:25:39.965Z,1.50
2023-03-08T08:28:09.033Z,1.60
2023-03-08T08:30:37.749Z,1.60
2023-03-08T08:33:06.479Z,1.70
2023-03-08T08:35:43.196Z,1.70
2023-03-08T08:38:13.649Z,1.80
2023-03-08T08:40:42.488Z,1.80
2023-03-08T08:43:11.263Z,1.80
2023-03-08T08:45:45.093Z,2.20
2023-03-08T08:48:14.617Z,2.30
2023-03-08T08:50:44.204Z,2.30
2023-03-08T08:53:14.429Z,2.30
2023-03-08T08:55:45.204Z,2.30
2023-03-08T08:58:15.294Z,2.20
2023-03-08T09:00:44.571Z,2.20
2023-03-08T09:03:13.366Z,2.10
2023-03-08T09:05:43.890Z,2.10
2023-03-08T09:08:14.412Z,2.10
2023-03-08T09:10:43.365Z,2.10
2023-03-08T09:13:13.771Z,2.30
2023-03-08T09:15:42.593Z,2.30
2023-03-08T09:18:11.374Z,2.40
2023-03-08T09:20:40.097Z,2.30
2023-03-08T09:23:10.244Z,2.20
2023-03-08T09:25:40.476Z,2.20
2023-03-08T09:28:10.293Z,2.40
2023-03-08T09:30:39.428Z,2.70
2023-03-08T09:33:08.191Z,2.80
2023-03-08T09:35:36.912Z,2.80
2023-03-08T09:38:05.668Z,2.90
2023-03-08T09:40:46.108Z,3.20
2023-03-08T09:43:24.691Z,3.40
2023-03-08T09:45:55.201Z,3.30
2023-03-08T09:48:30.938Z,3.30
2023-03-08T09:51:05.046Z,3.30
2023-03-08T09:53:39.495Z,3.20
2023-03-08T09:56:18.151Z,3.10
2023-03-08T09:58:52.492Z,3.10
2023-03-08T10:01:28.917Z,3.00
2023-03-08T10:04:15.983Z,3.00
2023-03-08T10:06:51.343Z,2.90
2023-03-08T10:09:37.138Z,3.00
2023-03-08T10:12:19.175Z,2.90
2023-03-08T10:14:51.202Z,2.80
2023-03-08T10:17:23.450Z,2.80
2023-03-08T10:19:58.130Z,2.80
2023-03-08T10:22:29.574Z,3.00
2023-03-08T10:25:02.628Z,3.10
2023-03-08T10:27:35.250Z,3.20
2023-03-08T10:30:16.923Z,3.40
2023-03-08T10:32:48.117Z,3.40
2023-03-08T10:35:18.194Z,3.80
2023-03-08T10:37:52.709Z,3.90
2023-03-08T10:40:23.075Z,4.10
2023-03-08T10:42:57.308Z,3.90
2023-03-08T10:45:29.112Z,3.90
2023-03-08T10:47:59.885Z,3.90
2023-03-08T10:50:30.038Z,4.00
2023-03-08T10:53:10.256Z,4.10
2023-03-08T10:55:45.050Z,4.20
2023-03-08T10:58:31.081Z,4.10
2023-03-08T11:01:03.157Z,4.20
2023-03-08T11:03:32.869Z,4.20
2023-03-08T11:06:04.119Z,4.50
2023-03-08T11:08:35.316Z,4.80
2023-03-08T11:11:10.517Z,4.80
2023-03-08T11:13:41.889Z,4.80
2023-03-08T11:16:23.563Z,4.80
2023-03-08T11:19:03.241Z,4.70
2023-03-08T11:21:42.401Z,4.30
2023-03-08T11:24:23.564Z,4.30
2023-03-08T11:27:03.983Z,4.40
2023-03-08T11:29:42.860Z,4.50
2023-03-08T11:32:35.087Z,4.60
2023-03-08T11:35:13.095Z,4.60
2023-03-08T11:37:47.853Z,4.70
2023-03-08T11:40:25.326Z,4.70
2023-03-08T11:43:14.989Z,4.80
2023-03-08T11:45:52.106Z,4.90
2023-03-08T11:51:38.079Z,4.60
2023-03-08T11:54:17.588Z,4.60
2023-03-08T11:56:51.068Z,4.60
2023-03-08T11:59:26.282Z,4.70
2023-03-08T12:02:02.702Z,4.60
2023-03-08T12:04:37.154Z,4.50
2023-03-08T12:07:16.791Z,4.40
2023-03-08T12:09:55.054Z,4.40
2023-03-08T12:12:30.027Z,4.30
2023-03-08T12:15:03.554Z,4.30
2023-03-08T12:17:37.776Z,4.20
2023-03-08T12:20:14.057Z,4.10
2023-03-08T12:22:51.771Z,4.00
2023-03-08T12:25:27.885Z,4.10
2023-03-08T12:28:01.158Z,4.10
2023-03-08T12:30:43.048Z,4.20
2023-03-08T12:33:14.892Z,4.10
2023-03-08T12:35:55.919Z,4.20
2023-03-08T12:38:35.802Z,4.20
2023-03-08T12:41:07.055Z,4.20
2023-03-08T12:43:38.134Z,4.20
2023-03-08T12:46:09.337Z,4.30
2023-03-08T12:48:47.650Z,4.30
2023-03-08T12:51:24.107Z,4.40
2023-03-08T12:54:05.186Z,4.50
2023-03-08T12:56:37.427Z,4.60
2023-03-08T12:59:27.561Z,4.60
2023-03-08T13:02:03.827Z,4.80
2023-03-08T13:04:41.262Z,4.90
2023-03-08T13:07:17.513Z,4.90
2023-03-08T13:09:54.167Z,4.90
2023-03-08T13:12:35.273Z,4.90
2023-03-08T13:15:22.172Z,5.00
2023-03-08T13:17:53.644Z,5.10
2023-03-08T13:20:25.494Z,5.00
2023-03-08T13:23:08.922Z,5.10
2023-03-08T13:26:01.490Z,5.20
2023-03-08T13:28:46.760Z,5.20
2023-03-08T13:31:19.371Z,5.20
2023-03-08T13:33:50.326Z,5.10
2023-03-08T13:36:21.296Z,5.10
2023-03-08T13:39:01.427Z,5.00
2023-03-08T13:41:36.757Z,5.00
2023-03-08T13:44:07.089Z,4.90
2023-03-08T13:46:40.017Z,5.10
2023-03-08T13:49:17.592Z,4.90
2023-03-08T13:51:49.945Z,4.90
2023-03-08T13:54:29.321Z,4.90
2023-03-08T13:57:01.231Z,5.00
2023-03-08T13:59:30.962Z,4.90
2023-03-08T14:02:00.171Z,5.00
2023-03-08T14:04:33.159Z,5.00
2023-03-08T14:07:05.698Z,4.90
2023-03-08T14:09:34.715Z,5.00
2023-03-08T14:12:07.904Z,4.70
2023-03-08T14:14:40.573Z,4.90
2023-03-08T14:17:21.184Z,4.90
2023-03-08T14:19:56.088Z,4.70
2023-03-08T14:22:38.645Z,4.70
2023-03-08T14:25:21.404Z,4.70
2023-03-08T14:27:51.733Z,4.60
2023-03-08T14:30:22.727Z,4.50
2023-03-08T14:32:59.452Z,4.50
2023-03-08T14:35:30.534Z,4.50
2023-03-08T14:37:59.732Z,4.50
2023-03-08T14:40:35.312Z,4.60
2023-03-08T14:43:08.169Z,4.50
2023-03-08T14:45:38.882Z,4.70
2023-03-08T14:48:24.614Z,4.70
2023-03-08T14:50:58.606Z,4.60
2023-03-08T14:53:30.715Z,4.60
2023-03-08T14:56:00.575Z,4.50
2023-03-08T14:58:32.918Z,4.50
2023-03-08T15:01:03.343Z,4.50
2023-03-08T15:03:33.485Z,4.40
2023-03-08T15:06:09.134Z,4.20
2023-03-08T15:08:38.200Z,4.00
2023-03-08T15:11:08.286Z,4.00
2023-03-08T15:13:38.443Z,4.00
2023-03-08T15:16:08.415Z,3.90
2023-03-08T15:18:37.230Z,3.70
2023-03-08T15:21:06.554Z,3.60
2023-03-08T15:23:38.928Z,3.60
2023-03-08T15:26:08.054Z,3.60
2023-03-08T15:28:38.222Z,3.50
2023-03-08T15:31:06.945Z,3.50
2023-03-08T15:33:35.830Z,3.50
2023-03-08T15:36:04.873Z,3.40
2023-03-08T15:38:33.619Z,3.30
2023-03-08T15:41:04.816Z,3.40
2023-03-08T15:43:34.249Z,3.40
2023-03-08T15:46:04.394Z,3.40
2023-03-08T15:48:33.150Z,3.40
2023-03-08T15:51:02.069Z,3.40
2023-03-08T15:53:35.624Z,3.40
2023-03-08T15:56:05.158Z,3.20
2023-03-08T15:58:33.979Z,3.20
2023-03-08T16:01:04.117Z,3.20
2023-03-08T16:03:32.924Z,3.10
2023-03-08T16:06:01.795Z,3.00
2023-03-08T16:08:31.150Z,3.10
2023-03-08T16:11:04.040Z,3.20
2023-03-08T16:13:33.038Z,3.10
2023-03-08T16:16:04.987Z,3.10
2023-03-08T16:18:34.764Z,3.10
2023-03-08T16:21:08.596Z,3.10
2023-03-08T16:23:38.141Z,3.00
2023-03-08T16:26:16.775Z,3.00
2023-03-08T16:28:48.219Z,3.00
2023-03-08T16:31:21.979Z,2.90
2023-03-08T16:33:50.931Z,2.90
2023-03-08T16:36:20.861Z,2.70
2023-03-08T16:38:49.654Z,2.70
2023-03-08T16:41:18.783Z,2.60
2023-03-08T16:43:48.617Z,2.60
2023-03-08T16:46:21.327Z,2.50
2023-03-08T16:48:54.381Z,2.50
2023-03-08T16:51:25.979Z,2.50
2023-03-08T16:53:55.287Z,2.40
2023-03-08T16:56:26.513Z,2.30
2023-03-08T16:58:58.583Z,2.20
2023-03-08T17:01:29.349Z,2.10
2023-03-08T17:03:59.342Z,2.00
2023-03-08T17:06:31.208Z,1.90
2023-03-08T17:09:00.569Z,2.00
2023-03-08T17:11:30.838Z,1.90
2023-03-08T17:14:01.937Z,1.80
2023-03-08T17:16:33.303Z,1.70
2023-03-08T17:19:03.315Z,1.70
2023-03-08T17:21:32.554Z,1.60
2023-03-08T17:24:01.274Z,1.60
2023-03-08T17:26:30.153Z,1.50
2023-03-08T17:28:58.876Z,1.50
2023-03-08T17:31:27.770Z,1.50
2023-03-08T17:33:57.922Z,1.40
2023-03-08T17:36:27.000Z,1.40
2023-03-08T17:38:56.243Z,1.40
2023-03-08T17:41:25.435Z,1.50
2023-03-08T17:43:54.973Z,1.60
2023-03-08T17:46:26.156Z,1.70
2023-03-08T17:48:57.446Z,1.70
2023-03-08T17:51:28.234Z,1.80
2023-03-08T17:53:58.079Z,1.90
2023-03-08T17:56:29.631Z,2.00
2023-03-08T17:59:00.165Z,2.00
2023-03-08T18:01:30.365Z,2.00
2023-03-08T18:04:02.183Z,2.00
2023-03-08T18:06:34.406Z,1.90
2023-03-08T18:09:05.500Z,1.90
2023-03-08T18:11:37.709Z,1.90
2023-03-08T18:14:07.328Z,1.80
2023-03-08T18:16:36.844Z,1.80
2023-03-08T18:19:08.087Z,1.70
2023-03-08T18:21:40.636Z,1.70
2023-03-08T18:24:12.263Z,1.60
2023-03-08T18:26:41.213Z,1.50
2023-03-08T18:29:10.161Z,1.40
2023-03-08T18:31:38.983Z,1.30
2023-03-08T18:34:09.854Z,1.20
2023-03-08T18:36:39.650Z,1.20
2023-03-08T18:39:10.075Z,1.10
2023-03-08T18:41:39.826Z,1.10
2023-03-08T18:44:08.758Z,1.10
2023-03-08T18:46:37.750Z,1.00
2023-03-08T18:49:11.328Z,1.00
2023-03-08T18:51:41.647Z,0.90
2023-03-08T18:54:13.516Z,0.90
2023-03-08T18:56:42.583Z,0.90
2023-03-08T18:59:13.555Z,0.90
2023-03-08T19:01:42.475Z,0.90
2023-03-08T19:04:13.168Z,0.90
2023-03-08T19:06:42.067Z,0.90
2023-03-08T19:09:12.439Z,0.80
2023-03-08T19:11:41.939Z,0.80
2023-03-08T19:14:13.172Z,0.80
2023-03-08T19:16:42.285Z,0.80
2023-03-08T19:19:14.773Z,0.80
2023-03-08T19:21:45.729Z,0.80
2023-03-08T19:24:15.516Z,0.80
2023-03-08T19:26:47.397Z,0.80
2023-03-08T19:29:19.177Z,0.80
2023-03-08T19:31:51.733Z,0.80
2023-03-08T19:34:24.533Z,0.80
2023-03-08T19:36:53.837Z,0.80
2023-03-08T19:39:25.184Z,0.80
2023-03-08T19:41:55.605Z,0.80
2023-03-08T19:44:25.029Z,0.80
2023-03-08T19:46:55.439Z,0.80
2023-03-08T19:49:29.769Z,0.80
2023-03-08T19:52:00.320Z,0.80
2023-03-08T19:54:30.293Z,0.70
2023-03-08T19:56:59.888Z,0.70
2023-03-08T19:59:29.756Z,0.70
2023-03-08T20:01:58.956Z,0.70
2023-03-08T20:04:29.977Z,0.70
2023-03-08T20:07:00.962Z,0.70
2023-03-08T20:09:30.106Z,0.70
2023-03-08T20:11:59.315Z,0.70
2023-03-08T20:14:28.867Z,0.70
2023-03-08T20:16:59.119Z,0.70
2023-03-08T20:19:31.858Z,0.70
2023-03-08T20:22:01.095Z,0.70
2023-03-08T20:24:30.057Z,0.70
2023-03-08T20:26:59.318Z,0.70
2023-03-08T20:29:28.209Z,0.70
2023-03-08T20:31:58.370Z,0.70
2023-03-08T20:34:28.959Z,0.70
2023-03-08T20:36:57.870Z,0.70
2023-03-08T20:39:26.713Z,0.80
2023-03-08T20:41:56.659Z,0.80
2023-03-08T20:44:25.466Z,0.80
2023-03-08T20:46:54.414Z,0.80
2023-03-08T20:49:23.264Z,0.80
2023-03-08T20:51:53.666Z,0.80
2023-03-08T20:54:22.606Z,0.80
2023-03-08T20:56:51.940Z,0.80
2023-03-08T20:59:24.100Z,0.80
2023-03-08T21:01:52.969Z,0.80
2023-03-08T21:04:21.811Z,0.80
2023-03-08T21:06:53.245Z,0.80
2023-03-08T21:09:22.659Z,0.80
2023-03-08T21:11:51.673Z,0.80
2023-03-08T21:14:20.513Z,0.80
2023-03-08T21:16:49.310Z,0.80
2023-03-08T21:19:18.690Z,0.80
2023-03-08T21:21:47.536Z,0.80
2023-03-08T21:24:20.153Z,0.70
2023-03-08T21:26:49.168Z,0.70
2023-03-08T21:29:20.255Z,0.70
2023-03-08T21:31:51.018Z,0.70
2023-03-08T21:34:21.026Z,0.70
2023-03-08T21:36:50.042Z,0.70
2023-03-08T21:39:20.852Z,0.70
2023-03-08T21:41:50.559Z,0.70
2023-03-08T21:44:21.248Z,0.70
2023-03-08T21:46:51.555Z,0.70
2023-03-08T21:49:22.599Z,0.70
2023-03-08T21:51:52.416Z,0.70
2023-03-08T21:54:23.938Z,0.70
2023-03-08T21:56:53.683Z,0.70
2023-03-08T21:59:26.846Z,0.70
2023-03-08T22:01:58.445Z,0.70
2023-03-08T22:04:28.082Z,0.70
2023-03-08T22:06:57.263Z,0.70
2023-03-08T22:09:29.266Z,0.70
2023-03-08T22:11:59.347Z,0.70
2023-03-08T22:14:28.610Z,0.70
2023-03-08T22:16:57.667Z,0.80
2023-03-08T22:19:26.620Z,0.80
2023-03-08T22:21:55.515Z,0.80
2023-03-08T22:24:24.336Z,0.80
2023-03-08T22:26:54.833Z,0.80
2023-03-08T22:29:23.997Z,0.80
2023-03-08T22:31:52.883Z,0.80
2023-03-08T22:34:21.769Z,0.80
2023-03-08T22:36:50.693Z,0.80
2023-03-08T22:39:19.654Z,0.70
2023-03-08T22:41:48.540Z,0.70
2023-03-08T22:44:18.821Z,0.70
2023-03-08T22:46:47.643Z,0.70
2023-03-08T22:49:17.194Z,0.80
2023-03-08T22:51:46.173Z,0.70
2023-03-08T22:54:17.680Z,0.70
2023-03-08T22:56:49.741Z,0.80
2023-03-08T22:59:20.246Z,0.80
2023-03-08T23:01:49.072Z,0.80
2023-03-08T23:04:18.282Z,0.70
2023-03-08T23:06:47.671Z,0.80
2023-03-08T23:09:17.225Z,0.80
2023-03-08T23:11:46.878Z,0.70
2023-03-08T23:14:16.028Z,0.80
2023-03-08T23:16:47.888Z,0.70
2023-03-08T23:19:21.409Z,0.70
2023-03-08T23:21:50.562Z,0.70
2023-03-08T23:24:19.534Z,0.70
2023-03-08T23:26:48.497Z,0.70
2023-03-08T23:29:17.456Z,0.70
2023-03-08T23:31:48.106Z,0.70
2023-03-08T23:34:17.002Z,0.70
2023-03-08T23:36:45.878Z,0.70
2023-03-08T23:39:14.779Z,0.70
2023-03-08T23:41:44.178Z,0.70
2023-03-08T23:44:13.466Z,0.70
2023-03-08T23:46:46.164Z,0.70
2023-03-08T23:49:17.560Z,0.70
2023-03-08T23:51:46.905Z,0.70
2023-03-08T23:54:15.717Z,0.70
2023-03-08T23:56:44.773Z,0.70
2023-03-08T23:59:17.994Z,0.70
